ADDS METAR Data INFO
IDs: Format: Raw Decoded Include TAF

Data at: 0456 UTC 25 May 2018

KGKY 250453Z AUTO 14005KT 10SM CLR 25/21 A3001 RMK AO2 SLP151 T02500211
KGKY 250353Z AUTO 13005KT 10SM CLR 26/21 A3001 RMK AO2 SLP153 T02610211
KGKY 250253Z AUTO 13004KT 10SM CLR 26/21 A2999 RMK AO2 SLP148 T02610211 53007
KGKY 250153Z AUTO 13003KT 10SM CLR 27/21 A2998 RMK AO2 SLP144 T02720206
KGKY 250053Z 15005KT 10SM CLR 29/20 A2997 RMK AO2 SLP139 T02940200
KGKY 242353Z 15006KT 10SM CLR 31/19 A2997 RMK AO2 SLP141 T03110194 10311 20289 56015
KGKY 242253Z 16006KT 10SM CLR 31/19 A2998 RMK AO2 SLP144 T03060194
KGKY 242153Z 16006KT 10SM CLR 31/19 A3000 RMK AO2 SLP149 T03060189
KGKY 242053Z VRB04KT 10SM FEW047 31/19 A3002 RMK AO2 SLP156 T03060189 56019
KGKY 241953Z 15005KT 10SM FEW047 31/18 A3004 RMK AO2 SLP162 T03060183
KGKY 241853Z 15008KT 10SM SCT041 29/21 A3006 RMK AO2 SLP170 T02940206
KGKY 241753Z 19007KT 10SM FEW037 29/21 A3008 RMK AO2 SLP176 6//// T02940206 10294 20194
KGKY 241653Z 17008KT 130V220 10SM SCT034 28/21 A3009 RMK AO2 SLP179 T02780206
KGKY 241553Z 18007KT 10SM SCT022 26/21 A3009 RMK AO2 SLP179 T02610211
KGKY 241453Z 15007KT 10SM CLR 26/22 A3009 RMK AO2 SLP178 T02610217 50006 $
KGKY 241353Z 18006KT 10SM CLR 24/22 A3009 RMK AO2 SLP180 T02440217 $
KGKY 241253Z 17005KT 10SM CLR 22/21 A3008 RMK AO2 SLP176 T02220211 $
KGKY 241153Z 13003KT 10SM CLR 19/19 A3007 RMK AO2 SLP173 T01940194 10233 20189 53007 $
KGKY 241053Z AUTO 12004KT 10SM CLR 19/19 A3006 RMK AO2 SLP169 T01940194 $
KGKY 240953Z AUTO 14003KT 10SM CLR 21/20 A3005 RMK AO2 SLP166 T02060200 $
KGKY 240853Z AUTO 00000KT 10SM CLR 21/21 A3005 RMK AO2 SLP166 T02110206 55005 $
KGKY 240753Z AUTO 17004KT 10SM CLR 22/21 A3004 RMK AO2 SLP165 T02170206 $
KGKY 240653Z AUTO 16006KT 10SM CLR 23/21 A3005 RMK AO2 SLP165 T02280206 $
KGKY 240553Z AUTO 16004KT 10SM CLR 23/20 A3006 RMK AO2 SLP171 T02280200 10311 20228 403170189 $
KGKY 240453Z AUTO 16004KT 10SM CLR 24/20 A3006 RMK AO2 SLP169 T02390200 $
KGKY 240353Z AUTO 16005KT 10SM CLR 25/21 A3004 RMK AO2 SLP163 T02500206 $
KGKY 240153Z AUTO 12006KT 10SM CLR 28/20 A2999 RMK AO2 SLP146 T02780200
KGKY 240053Z 12007KT 10SM CLR 29/19 A2997 RMK AO2 SLP139 T02940189
KGKY 232353Z 13009KT 10SM CLR 31/19 A2997 RMK AO2 SLP138 T03060189 10317 20294 56013
KGKY 232253Z 11009KT 10SM CLR 32/18 A2998 RMK AO2 SLP143 T03170183
KGKY 232153Z 10009KT 10SM CLR 31/18 A2998 RMK AO2 SLP144 T03110183
KGKY 232053Z 10008KT 10SM FEW050 31/19 A3001 RMK AO2 SLP152 T03110189 56015
KGKY 231953Z 13007KT 10SM CLR 31/19 A3002 RMK AO2 SLP155 T03060194
KGKY 231853Z 17008KT 10SM SCT047 31/19 A3004 RMK AO2 SLP162 T03060194
KGKY 231753Z 13010KT 10SM FEW040 30/20 A3005 RMK AO2 SLP166 T03000200 10300 20194 58007